createdAt,value
2023-03-29T00:00:07.042Z,2922.00
2023-03-29T00:01:07.050Z,2943.00
2023-03-29T00:02:07.127Z,2665.00
2023-03-29T00:03:07.370Z,2809.00
2023-03-29T00:04:07.275Z,2835.00
2023-03-29T00:05:07.268Z,2858.00
2023-03-29T00:06:07.244Z,2864.00
2023-03-29T00:07:07.292Z,2770.00
2023-03-29T00:08:07.375Z,2738.00
2023-03-29T00:09:07.309Z,2680.00
2023-03-29T00:10:07.311Z,2517.00
2023-03-29T00:11:07.383Z,2678.00
2023-03-29T00:12:07.416Z,2835.00
2023-03-29T00:13:07.438Z,2924.00
2023-03-29T00:14:07.466Z,2860.00
2023-03-29T00:15:07.424Z,2887.00
2023-03-29T00:16:07.449Z,2923.00
2023-03-29T00:17:07.482Z,2937.00
2023-03-29T00:18:07.501Z,3025.00
2023-03-29T00:19:07.530Z,3110.00
2023-03-29T00:20:07.592Z,3086.00
2023-03-29T00:21:07.604Z,3049.00
2023-03-29T00:22:07.670Z,3090.00
2023-03-29T00:23:07.780Z,3013.00
2023-03-29T00:24:07.715Z,3049.00
2023-03-29T00:25:07.745Z,3088.00
2023-03-29T00:26:08.331Z,2960.00
2023-03-29T00:27:07.801Z,2980.00
2023-03-29T00:28:07.802Z,2792.00
2023-03-29T00:29:07.807Z,2713.00
2023-03-29T00:30:07.823Z,2631.00
2023-03-29T00:31:07.914Z,2546.00
2023-03-29T00:32:07.880Z,2477.00
2023-03-29T00:33:07.905Z,2565.00
2023-03-29T00:34:07.885Z,2676.00
2023-03-29T00:35:07.895Z,2698.00
2023-03-29T00:36:07.950Z,2660.00
2023-03-29T00:37:07.918Z,2778.00
2023-03-29T00:38:07.976Z,3017.00
2023-03-29T00:39:08.004Z,3323.00
2023-03-29T00:40:07.986Z,3415.00
2023-03-29T00:41:08.007Z,3385.00
2023-03-29T00:42:08.042Z,3382.00
2023-03-29T00:43:08.105Z,3408.00
2023-03-29T00:44:08.131Z,3329.00
2023-03-29T00:45:08.162Z,3309.00
2023-03-29T00:46:08.266Z,3326.00
2023-03-29T00:47:08.271Z,3258.00
2023-03-29T00:48:08.494Z,3311.00
2023-03-29T00:49:08.370Z,3298.00
2023-03-29T00:50:08.316Z,3274.00
2023-03-29T00:51:09.993Z,3187.00
2023-03-29T00:52:08.392Z,3085.00
2023-03-29T00:53:08.398Z,3002.00
2023-03-29T00:54:08.456Z,3073.00
2023-03-29T00:55:08.454Z,3044.00
2023-03-29T00:56:08.496Z,3051.00
2023-03-29T00:57:08.584Z,3054.00
2023-03-29T00:58:08.572Z,3183.00
2023-03-29T00:59:08.569Z,3135.00
2023-03-29T01:00:08.624Z,3121.00
2023-03-29T01:01:08.676Z,3142.00
2023-03-29T01:02:08.796Z,3177.00
2023-03-29T01:03:08.859Z,3170.00
2023-03-29T01:04:08.896Z,2917.00
2023-03-29T01:05:08.821Z,2926.00
2023-03-29T01:06:08.827Z,2754.00
2023-03-29T01:07:08.885Z,2837.00
2023-03-29T01:08:08.834Z,2857.00
2023-03-29T01:09:08.907Z,2786.00
2023-03-29T01:10:08.942Z,2755.00
2023-03-29T01:11:09.045Z,2742.00
2023-03-29T01:12:09.053Z,2575.00
2023-03-29T01:13:09.145Z,2608.00
2023-03-29T01:14:09.164Z,2638.00
2023-03-29T01:15:09.200Z,2736.00
2023-03-29T01:16:09.286Z,2757.00
2023-03-29T01:17:09.338Z,2735.00
2023-03-29T01:18:09.412Z,2769.00
2023-03-29T01:19:09.395Z,2780.00
2023-03-29T01:20:09.391Z,2805.00
2023-03-29T01:21:09.409Z,2834.00
2023-03-29T01:22:09.458Z,2673.00
2023-03-29T01:23:09.468Z,2714.00
2023-03-29T01:24:09.460Z,2791.00
2023-03-29T01:25:09.472Z,2782.00
2023-03-29T01:26:09.526Z,2785.00
2023-03-29T01:27:09.539Z,2728.00
2023-03-29T01:28:09.654Z,2622.00
2023-03-29T01:29:09.649Z,2783.00
2023-03-29T01:30:09.663Z,2622.00
2023-03-29T01:31:09.733Z,2540.00
2023-03-29T01:32:09.800Z,2609.00
2023-03-29T01:33:09.790Z,2600.00
2023-03-29T01:34:09.834Z,2561.00
2023-03-29T01:35:09.860Z,2495.00
2023-03-29T01:36:09.964Z,2436.00
2023-03-29T01:37:09.966Z,2319.00
2023-03-29T01:38:10.029Z,2253.00
2023-03-29T01:39:10.091Z,2271.00
2023-03-29T01:40:10.214Z,2283.00
2023-03-29T01:41:10.190Z,2245.00
2023-03-29T01:42:10.277Z,2088.00
2023-03-29T01:43:10.380Z,2025.00
2023-03-29T01:44:10.396Z,2075.00
2023-03-29T01:45:10.459Z,2055.00
2023-03-29T01:46:10.763Z,2080.00
2023-03-29T01:47:10.556Z,2108.00
2023-03-29T01:48:10.670Z,2188.00
2023-03-29T01:49:10.743Z,2192.00
2023-03-29T01:50:10.719Z,2194.00
2023-03-29T01:51:10.765Z,2299.00
2023-03-29T01:52:10.791Z,2286.00
2023-03-29T01:53:10.920Z,2446.00
2023-03-29T01:54:10.903Z,2546.00
2023-03-29T01:55:10.977Z,2627.00
2023-03-29T01:56:10.974Z,2717.00
2023-03-29T01:57:11.056Z,2696.00
2023-03-29T01:58:11.093Z,2722.00
2023-03-29T01:59:11.095Z,2695.00
2023-03-29T02:00:11.141Z,2635.00
2023-03-29T02:01:11.232Z,2622.00
2023-03-29T02:02:11.321Z,2687.00
2023-03-29T02:03:11.414Z,2672.00
2023-03-29T02:04:11.292Z,2726.00
2023-03-29T02:05:11.286Z,2768.00
2023-03-29T02:06:11.341Z,2782.00
2023-03-29T02:07:11.420Z,2735.00
2023-03-29T02:08:11.468Z,2670.00
2023-03-29T02:09:11.474Z,2656.00
2023-03-29T02:10:11.497Z,2749.00
2023-03-29T02:11:11.541Z,2771.00
2023-03-29T02:12:11.612Z,2875.00
2023-03-29T02:13:11.704Z,2920.00
2023-03-29T02:14:11.707Z,2989.00
2023-03-29T02:15:11.772Z,3002.00
2023-03-29T02:16:11.871Z,2909.00
2023-03-29T02:17:11.827Z,2890.00
2023-03-29T02:18:11.937Z,2891.00
2023-03-29T02:19:11.946Z,2756.00
2023-03-29T02:20:11.955Z,2866.00
2023-03-29T02:21:12.007Z,2907.00
2023-03-29T02:22:12.081Z,2574.00
2023-03-29T02:23:12.096Z,2571.00
2023-03-29T02:24:12.140Z,2359.00
2023-03-29T02:25:12.147Z,2463.00
2023-03-29T02:26:12.156Z,2506.00
2023-03-29T02:27:12.161Z,2448.00
2023-03-29T02:28:12.191Z,2339.00
2023-03-29T02:29:12.115Z,2338.00
2023-03-29T02:30:12.168Z,2313.00
2023-03-29T02:31:12.229Z,2273.00
2023-03-29T02:32:12.239Z,2326.00
2023-03-29T02:33:12.260Z,2278.00
2023-03-29T02:34:12.252Z,2218.00
2023-03-29T02:35:12.275Z,2182.00
2023-03-29T02:36:12.296Z,2200.00
2023-03-29T02:37:12.316Z,2657.00
2023-03-29T02:38:12.388Z,2433.00
2023-03-29T02:39:12.390Z,2375.00
2023-03-29T02:40:12.405Z,2365.00
2023-03-29T02:41:12.445Z,2333.00
2023-03-29T02:42:12.466Z,2328.00
2023-03-29T02:43:12.474Z,2294.00
2023-03-29T02:44:12.506Z,2355.00
2023-03-29T02:45:12.533Z,2370.00
2023-03-29T02:46:12.591Z,2397.00
2023-03-29T02:47:12.605Z,2454.00
2023-03-29T02:48:12.682Z,2479.00
2023-03-29T02:49:12.757Z,2473.00
2023-03-29T02:50:12.733Z,2497.00
2023-03-29T02:51:12.836Z,2461.00
2023-03-29T02:52:12.907Z,2423.00
2023-03-29T02:53:12.917Z,2462.00
2023-03-29T02:54:12.917Z,2368.00
2023-03-29T02:55:12.961Z,2444.00
2023-03-29T02:56:12.935Z,2441.00
2023-03-29T02:57:13.042Z,2454.00
2023-03-29T02:58:13.050Z,2480.00
2023-03-29T02:59:13.050Z,2483.00
2023-03-29T03:00:13.074Z,2442.00
2023-03-29T03:01:13.117Z,2470.00
2023-03-29T03:02:13.095Z,2332.00
2023-03-29T03:03:13.267Z,2395.00
2023-03-29T03:04:13.409Z,2517.00
2023-03-29T03:05:13.141Z,2361.00
2023-03-29T03:06:13.140Z,2412.00
2023-03-29T03:07:13.163Z,2200.00
2023-03-29T03:08:13.164Z,2114.00
2023-03-29T03:09:13.191Z,1996.00
2023-03-29T03:10:13.250Z,1804.00
2023-03-29T03:11:13.293Z,1651.00
2023-03-29T03:12:13.324Z,1750.00
2023-03-29T03:13:13.393Z,1872.00
2023-03-29T03:14:13.434Z,1867.00
2023-03-29T03:15:13.506Z,1966.00
2023-03-29T03:16:13.590Z,1886.00
2023-03-29T03:17:13.537Z,1731.00
2023-03-29T03:18:13.519Z,1607.00
2023-03-29T03:19:13.524Z,1683.00
2023-03-29T03:20:13.608Z,1721.00
2023-03-29T03:21:13.616Z,1513.00
2023-03-29T03:22:13.669Z,1520.00
2023-03-29T03:23:13.740Z,1470.00
2023-03-29T03:24:13.781Z,1299.00
2023-03-29T03:25:13.853Z,1549.00
2023-03-29T03:26:13.898Z,1760.00
2023-03-29T03:27:13.962Z,1578.00
2023-03-29T03:28:14.030Z,1784.00
2023-03-29T03:29:14.035Z,1938.00
2023-03-29T03:30:14.022Z,1929.00
2023-03-29T03:31:14.135Z,1825.00
2023-03-29T03:32:14.110Z,1937.00
2023-03-29T03:33:14.136Z,1658.00
2023-03-29T03:34:14.186Z,1082.00
2023-03-29T03:35:14.226Z,1200.00
2023-03-29T03:36:14.271Z,1081.00
2023-03-29T03:37:14.282Z,1645.00
2023-03-29T03:38:14.289Z,1575.00
2023-03-29T03:39:14.337Z,1870.00
2023-03-29T03:40:14.309Z,1800.00
2023-03-29T03:41:14.313Z,1798.00
2023-03-29T03:42:14.380Z,2025.00
2023-03-29T03:43:14.454Z,2208.00
2023-03-29T03:44:14.443Z,2292.00
2023-03-29T03:45:15.422Z,2478.00
2023-03-29T03:46:14.552Z,2604.00
2023-03-29T03:47:14.517Z,2615.00
2023-03-29T03:48:14.528Z,2630.00
2023-03-29T03:49:14.528Z,2612.00
2023-03-29T03:50:14.565Z,2648.00
2023-03-29T03:51:14.639Z,2556.00
2023-03-29T03:52:14.705Z,2560.00
2023-03-29T03:53:14.746Z,2713.00
2023-03-29T03:54:14.763Z,2812.00
2023-03-29T03:55:14.834Z,2919.00
2023-03-29T03:56:14.891Z,3119.00
2023-03-29T03:57:14.938Z,3247.00
2023-03-29T03:58:14.926Z,3233.00
2023-03-29T03:59:14.951Z,3222.00
2023-03-29T04:00:15.057Z,3182.00
2023-03-29T04:01:15.123Z,3307.00
2023-03-29T04:02:15.196Z,3292.00
2023-03-29T04:03:15.401Z,3210.00
2023-03-29T04:04:15.336Z,3183.00
2023-03-29T04:05:15.362Z,3214.00
2023-03-29T04:06:15.390Z,3256.00
2023-03-29T04:07:15.441Z,3250.00
2023-03-29T04:08:15.488Z,3200.00
2023-03-29T04:09:15.510Z,3160.00
2023-03-29T04:10:15.540Z,3215.00
2023-03-29T04:11:15.648Z,3239.00
2023-03-29T04:12:15.684Z,3292.00
2023-03-29T04:13:15.706Z,3323.00
2023-03-29T04:14:15.767Z,3242.00
2023-03-29T04:15:15.781Z,3286.00
2023-03-29T04:16:15.838Z,3197.00
2023-03-29T04:17:15.844Z,3204.00
2023-03-29T04:18:16.134Z,3181.00
2023-03-29T04:19:15.955Z,3198.00
2023-03-29T04:20:16.046Z,3148.00
2023-03-29T04:21:16.085Z,3094.00
2023-03-29T04:22:16.133Z,3019.00
2023-03-29T04:23:16.212Z,3015.00
2023-03-29T04:24:16.308Z,3188.00
2023-03-29T04:25:16.297Z,3148.00
2023-03-29T04:26:16.308Z,3132.00
2023-03-29T04:27:16.352Z,3039.00
2023-03-29T04:28:16.434Z,3061.00
2023-03-29T04:29:16.510Z,3178.00
2023-03-29T04:30:16.576Z,3219.00
2023-03-29T04:31:16.699Z,3197.00
2023-03-29T04:32:16.749Z,3104.00
2023-03-29T04:33:16.815Z,2994.00
2023-03-29T04:34:16.935Z,2798.00
2023-03-29T04:35:16.963Z,2911.00
2023-03-29T04:36:17.034Z,2817.00
2023-03-29T04:37:16.956Z,2625.00
2023-03-29T04:38:16.960Z,2561.00
2023-03-29T04:39:16.919Z,2521.00
2023-03-29T04:40:16.912Z,2764.00
2023-03-29T04:41:16.910Z,3018.00
2023-03-29T04:42:16.881Z,3224.00
2023-03-29T04:43:16.915Z,3290.00
2023-03-29T04:44:16.844Z,3256.00
2023-03-29T04:45:16.903Z,3151.00
2023-03-29T04:46:16.897Z,3137.00
2023-03-29T04:47:16.916Z,2999.00
2023-03-29T04:48:16.936Z,2881.00
2023-03-29T04:49:16.989Z,2932.00
2023-03-29T04:50:16.988Z,2945.00
2023-03-29T04:51:17.045Z,3125.00
2023-03-29T04:52:17.096Z,3154.00
2023-03-29T04:53:17.147Z,3024.00
2023-03-29T04:54:17.178Z,3297.00
2023-03-29T04:55:17.169Z,3414.00
2023-03-29T04:56:17.209Z,3357.00
2023-03-29T04:57:17.255Z,3317.00
2023-03-29T04:58:18.155Z,3168.00
2023-03-29T04:59:17.229Z,3171.00
2023-03-29T05:01:45.118Z,500.00
2023-03-29T05:02:37.566Z,500.00
2023-03-29T05:03:37.488Z,500.00
2023-03-29T05:04:37.523Z,500.00
2023-03-29T05:05:37.457Z,500.00
2023-03-29T05:06:37.432Z,500.00
2023-03-29T05:07:37.434Z,526.00
2023-03-29T05:08:37.437Z,549.00
2023-03-29T05:09:37.405Z,652.00
2023-03-29T05:10:37.442Z,646.00
2023-03-29T05:11:37.414Z,607.00
2023-03-29T05:12:37.454Z,590.00
2023-03-29T05:13:37.429Z,593.00
2023-03-29T05:14:37.377Z,744.00
2023-03-29T05:15:39.043Z,643.00
2023-03-29T05:16:37.414Z,622.00
2023-03-29T05:17:37.376Z,611.00
2023-03-29T05:18:37.425Z,722.00
2023-03-29T05:19:37.378Z,853.00
2023-03-29T05:20:37.359Z,606.00
2023-03-29T05:21:37.331Z,607.00
2023-03-29T05:22:37.333Z,616.00
2023-03-29T05:23:37.416Z,606.00
2023-03-29T05:24:37.353Z,589.00
2023-03-29T05:25:37.317Z,631.00
2023-03-29T05:26:37.350Z,647.00
2023-03-29T05:27:37.332Z,613.00
2023-03-29T05:28:37.366Z,556.00
2023-03-29T05:29:37.282Z,548.00
2023-03-29T05:30:37.305Z,571.00
2023-03-29T05:31:37.331Z,639.00
2023-03-29T05:32:37.330Z,656.00
2023-03-29T05:33:37.382Z,664.00
2023-03-29T05:34:37.297Z,605.00
2023-03-29T05:35:37.326Z,652.00
2023-03-29T05:36:37.287Z,603.00
2023-03-29T05:37:37.356Z,748.00
2023-03-29T05:38:37.725Z,700.00
2023-03-29T05:39:37.793Z,728.00
2023-03-29T05:40:37.256Z,736.00
2023-03-29T05:41:37.248Z,663.00
2023-03-29T05:42:37.229Z,646.00
2023-03-29T05:43:37.263Z,959.00
2023-03-29T05:44:37.722Z,780.00
2023-03-29T05:47:05.176Z,500.00
2023-03-29T05:47:57.377Z,500.00
2023-03-29T05:48:57.555Z,500.00
2023-03-29T05:49:57.445Z,500.00
2023-03-29T05:50:57.386Z,500.00
2023-03-29T05:51:57.350Z,500.00
2023-03-29T05:52:57.423Z,588.00
2023-03-29T05:53:57.325Z,597.00
2023-03-29T05:54:57.293Z,533.00
2023-03-29T05:55:57.304Z,551.00
2023-03-29T05:56:57.398Z,562.00
2023-03-29T05:57:57.367Z,534.00
2023-03-29T05:58:57.367Z,497.00
2023-03-29T05:59:57.499Z,494.00
2023-03-29T06:00:57.478Z,494.00
2023-03-29T06:01:57.496Z,459.00
2023-03-29T06:03:06.466Z,495.00
2023-03-29T06:03:59.328Z,447.00
2023-03-29T06:04:57.656Z,488.00
2023-03-29T06:05:57.523Z,500.00
2023-03-29T06:06:57.617Z,536.00
2023-03-29T06:07:57.519Z,589.00
2023-03-29T06:08:57.487Z,619.00
2023-03-29T06:09:57.548Z,612.00
2023-03-29T06:10:57.481Z,803.00
2023-03-29T06:11:57.510Z,835.00
2023-03-29T06:12:57.607Z,689.00
2023-03-29T06:13:57.568Z,548.00
2023-03-29T06:14:58.040Z,519.00
2023-03-29T06:15:57.673Z,565.00
2023-03-29T06:16:57.775Z,567.00
2023-03-29T06:17:57.801Z,604.00
2023-03-29T06:18:57.820Z,711.00
2023-03-29T06:19:57.980Z,740.00
2023-03-29T06:20:58.014Z,602.00
2023-03-29T06:21:57.943Z,522.00
2023-03-29T06:22:57.947Z,535.00
2023-03-29T06:23:58.044Z,592.00
2023-03-29T06:24:57.958Z,640.00
2023-03-29T06:25:58.007Z,651.00
2023-03-29T06:26:57.970Z,533.00
2023-03-29T06:27:58.016Z,502.00
2023-03-29T06:28:57.988Z,529.00
2023-03-29T06:29:58.043Z,524.00
2023-03-29T06:30:58.148Z,554.00
2023-03-29T06:31:58.090Z,563.00
2023-03-29T06:32:58.175Z,588.00
2023-03-29T06:33:58.030Z,608.00
2023-03-29T06:34:58.593Z,621.00
2023-03-29T06:35:58.162Z,630.00
2023-03-29T06:36:58.585Z,570.00
2023-03-29T06:37:58.140Z,746.00
2023-03-29T06:38:58.251Z,662.00
2023-03-29T06:39:58.567Z,650.00
2023-03-29T06:40:58.464Z,599.00
2023-03-29T06:41:59.029Z,549.00
2023-03-29T06:42:58.232Z,519.00
2023-03-29T06:43:58.242Z,527.00
2023-03-29T06:45:00.255Z,628.00
2023-03-29T06:46:01.249Z,649.00
2023-03-29T06:47:05.870Z,664.00
2023-03-29T06:47:58.771Z,600.00
2023-03-29T06:48:58.777Z,544.00
2023-03-29T06:49:58.713Z,547.00
2023-03-29T06:50:58.583Z,574.00
2023-03-29T06:51:59.423Z,608.00
2023-03-29T06:53:02.463Z,613.00
2023-03-29T06:53:58.300Z,614.00
2023-03-29T06:54:58.261Z,599.00
2023-03-29T06:55:58.281Z,518.00
2023-03-29T06:56:58.287Z,575.00
2023-03-29T06:57:59.114Z,572.00
2023-03-29T06:58:59.561Z,461.00
2023-03-29T07:01:26.128Z,500.00
2023-03-29T07:02:17.978Z,500.00
2023-03-29T07:03:18.003Z,500.00
2023-03-29T07:04:18.255Z,500.00
2023-03-29T07:05:18.029Z,500.00
2023-03-29T07:06:18.613Z,500.00
2023-03-29T07:07:18.056Z,516.00
2023-03-29T07:08:18.022Z,447.00
2023-03-29T07:09:19.565Z,442.00
2023-03-29T07:10:18.169Z,400.00
2023-03-29T07:11:18.091Z,400.00
2023-03-29T07:12:18.158Z,400.00
2023-03-29T07:13:18.160Z,400.00
2023-03-29T07:14:18.198Z,428.00
2023-03-29T07:15:18.258Z,505.00
2023-03-29T07:16:18.319Z,462.00
2023-03-29T07:17:18.320Z,452.00
2023-03-29T07:18:18.456Z,498.00
2023-03-29T07:19:18.500Z,506.00
2023-03-29T07:20:18.562Z,654.00
2023-03-29T07:21:18.505Z,792.00
2023-03-29T07:22:18.580Z,622.00
2023-03-29T07:23:18.608Z,988.00
2023-03-29T07:24:18.648Z,980.00
2023-03-29T07:25:18.699Z,837.00
2023-03-29T07:26:30.006Z,857.00
2023-03-29T07:27:18.781Z,786.00
2023-03-29T07:28:18.696Z,761.00
2023-03-29T07:29:18.697Z,1013.00
2023-03-29T07:30:19.155Z,1275.00
2023-03-29T07:31:18.737Z,1278.00
2023-03-29T07:32:18.759Z,625.00
2023-03-29T07:33:18.851Z,600.00
2023-03-29T07:34:18.706Z,632.00
2023-03-29T07:35:19.124Z,620.00
2023-03-29T07:36:18.740Z,696.00
2023-03-29T07:37:18.723Z,630.00
2023-03-29T07:38:18.751Z,597.00
2023-03-29T07:39:18.835Z,661.00
2023-03-29T07:40:19.050Z,660.00
2023-03-29T07:41:18.868Z,632.00
2023-03-29T07:42:18.876Z,540.00
2023-03-29T07:43:19.003Z,588.00
2023-03-29T07:44:18.987Z,505.00
2023-03-29T07:45:19.606Z,504.00
2023-03-29T07:46:20.180Z,504.00
2023-03-29T07:47:19.183Z,524.00
2023-03-29T07:48:19.225Z,555.00
2023-03-29T07:49:21.004Z,583.00
2023-03-29T07:50:19.639Z,598.00
2023-03-29T07:51:19.196Z,559.00
2023-03-29T07:52:19.133Z,592.00
2023-03-29T07:53:19.183Z,631.00
2023-03-29T07:54:26.740Z,651.00
2023-03-29T07:55:19.134Z,649.00
2023-03-29T07:56:19.158Z,575.00
2023-03-29T07:57:19.175Z,625.00
2023-03-29T07:58:19.194Z,524.00
2023-03-29T07:59:19.124Z,429.00
2023-03-29T08:00:19.157Z,621.00
2023-03-29T08:01:19.902Z,623.00
2023-03-29T08:02:19.114Z,637.00
2023-03-29T08:03:19.185Z,785.00
2023-03-29T08:04:19.188Z,2916.00
2023-03-29T08:05:29.251Z,1701.00
2023-03-29T08:06:20.045Z,1397.00
2023-03-29T08:07:20.101Z,996.00
2023-03-29T08:08:19.091Z,829.00
2023-03-29T08:09:19.092Z,584.00
2023-03-29T08:10:19.056Z,564.00
2023-03-29T08:11:19.070Z,585.00
2023-03-29T08:12:19.007Z,587.00
2023-03-29T08:13:18.980Z,638.00
2023-03-29T08:14:19.023Z,656.00
2023-03-29T08:15:19.614Z,607.00
2023-03-29T08:16:19.021Z,948.00
2023-03-29T08:17:19.062Z,740.00
2023-03-29T08:18:19.029Z,785.00
2023-03-29T08:19:19.208Z,1382.00
2023-03-29T08:20:19.172Z,1047.00
2023-03-29T08:21:19.648Z,673.00
2023-03-29T08:22:19.093Z,534.00
2023-03-29T08:23:19.143Z,609.00
2023-03-29T08:24:20.900Z,419.00
2023-03-29T08:25:19.565Z,561.00
2023-03-29T08:26:19.364Z,612.00
2023-03-29T08:27:19.313Z,400.00
2023-03-29T08:28:19.286Z,448.00
2023-03-29T08:29:19.343Z,478.00
2023-03-29T08:30:19.377Z,1605.00
2023-03-29T08:31:19.398Z,1836.00
2023-03-29T08:32:19.423Z,1567.00
2023-03-29T08:33:19.396Z,1361.00
2023-03-29T08:34:19.423Z,1370.00
2023-03-29T08:35:19.602Z,629.00
2023-03-29T08:36:19.454Z,516.00
2023-03-29T08:37:19.446Z,518.00
2023-03-29T08:38:19.395Z,498.00
2023-03-29T08:39:19.699Z,587.00
2023-03-29T08:40:19.672Z,663.00
2023-03-29T08:41:19.462Z,645.00
2023-03-29T08:42:19.456Z,634.00
2023-03-29T08:43:19.674Z,1213.00
2023-03-29T08:44:19.502Z,1339.00
2023-03-29T08:45:19.525Z,1116.00
2023-03-29T08:46:19.532Z,916.00
2023-03-29T08:47:19.562Z,1353.00
2023-03-29T08:48:19.486Z,1141.00
2023-03-29T08:49:19.495Z,1028.00
2023-03-29T08:50:19.562Z,760.00
2023-03-29T08:51:19.488Z,585.00
2023-03-29T08:52:19.485Z,521.00
2023-03-29T08:53:19.495Z,480.00
2023-03-29T08:54:19.521Z,524.00
2023-03-29T08:55:19.561Z,584.00
2023-03-29T08:56:19.427Z,617.00
2023-03-29T08:57:19.541Z,614.00
2023-03-29T08:58:19.568Z,643.00
2023-03-29T08:59:19.501Z,743.00
2023-03-29T09:00:19.633Z,789.00
2023-03-29T09:01:19.629Z,851.00
2023-03-29T09:02:19.712Z,634.00
2023-03-29T09:03:19.754Z,616.00
2023-03-29T09:04:19.732Z,1254.00
2023-03-29T09:05:20.162Z,824.00
2023-03-29T09:06:19.834Z,832.00
2023-03-29T09:07:19.909Z,988.00
2023-03-29T09:08:19.870Z,1152.00
2023-03-29T09:09:19.960Z,1388.00
2023-03-29T09:10:19.949Z,1277.00
2023-03-29T09:11:19.976Z,1332.00
2023-03-29T09:12:20.041Z,1139.00
2023-03-29T09:13:20.142Z,1161.00
2023-03-29T09:14:20.095Z,1219.00
2023-03-29T09:15:20.090Z,1316.00
2023-03-29T09:16:20.197Z,1239.00
2023-03-29T09:17:20.112Z,1218.00
2023-03-29T09:18:20.181Z,1430.00
2023-03-29T09:19:20.137Z,1266.00
2023-03-29T09:20:20.616Z,1221.00
2023-03-29T09:21:20.226Z,1177.00
2023-03-29T09:22:20.244Z,1300.00
2023-03-29T09:23:20.290Z,1408.00
2023-03-29T09:24:20.330Z,1463.00
2023-03-29T09:25:20.609Z,1303.00
2023-03-29T09:26:20.397Z,1556.00
2023-03-29T09:27:20.374Z,1470.00
2023-03-29T09:28:20.388Z,1478.00
2023-03-29T09:29:20.390Z,1502.00
2023-03-29T09:30:20.554Z,1437.00
2023-03-29T09:31:20.481Z,1307.00
2023-03-29T09:32:20.417Z,1543.00
2023-03-29T09:33:20.427Z,1622.00
2023-03-29T09:34:20.433Z,1507.00
2023-03-29T09:35:20.600Z,1494.00
2023-03-29T09:36:20.580Z,1324.00
2023-03-29T09:37:20.616Z,1199.00
2023-03-29T09:38:20.680Z,1435.00
2023-03-29T09:39:20.973Z,1366.00
2023-03-29T09:40:21.777Z,1656.00
2023-03-29T09:41:20.853Z,1503.00
2023-03-29T09:42:20.988Z,1253.00
2023-03-29T09:43:20.641Z,1004.00
2023-03-29T09:44:30.329Z,1400.00
2023-03-29T09:45:22.036Z,1402.00
2023-03-29T09:46:20.701Z,1413.00
2023-03-29T09:47:20.653Z,1596.00
2023-03-29T09:48:20.648Z,1654.00
2023-03-29T09:49:20.700Z,1645.00
2023-03-29T09:50:30.730Z,1447.00
2023-03-29T09:51:21.648Z,1184.00
2023-03-29T09:52:20.658Z,1156.00
2023-03-29T09:53:20.693Z,641.00
2023-03-29T09:54:20.776Z,527.00
2023-03-29T09:55:20.930Z,499.00
2023-03-29T09:56:20.854Z,554.00
2023-03-29T09:57:20.958Z,1463.00
2023-03-29T09:58:20.928Z,646.00
2023-03-29T09:59:20.986Z,491.00
2023-03-29T10:00:21.023Z,519.00
2023-03-29T10:01:21.731Z,475.00
2023-03-29T10:02:22.727Z,471.00
2023-03-29T10:03:21.173Z,1335.00
2023-03-29T10:04:21.620Z,1213.00
2023-03-29T10:05:20.972Z,660.00
2023-03-29T10:06:21.051Z,590.00
2023-03-29T10:07:20.925Z,575.00
2023-03-29T10:08:21.024Z,501.00
2023-03-29T10:09:21.985Z,701.00
2023-03-29T10:10:20.996Z,566.00
2023-03-29T10:11:20.953Z,554.00
2023-03-29T10:12:20.988Z,667.00
2023-03-29T10:13:20.907Z,547.00
2023-03-29T10:14:20.918Z,499.00
2023-03-29T10:15:29.166Z,531.00
2023-03-29T10:16:22.029Z,404.00
2023-03-29T10:17:20.979Z,400.00
2023-03-29T10:18:20.958Z,400.00
2023-03-29T10:19:20.845Z,400.00
2023-03-29T10:20:20.949Z,400.00
2023-03-29T10:21:21.014Z,400.00
2023-03-29T10:22:20.843Z,400.00
2023-03-29T10:23:20.818Z,408.00
2023-03-29T10:24:20.808Z,424.00
2023-03-29T10:25:20.850Z,507.00
2023-03-29T10:26:21.169Z,576.00
2023-03-29T10:27:20.917Z,494.00
2023-03-29T10:28:20.876Z,500.00
2023-03-29T10:29:21.021Z,475.00
2023-03-29T10:30:20.927Z,547.00
2023-03-29T10:31:21.144Z,577.00
2023-03-29T10:32:20.984Z,731.00
2023-03-29T10:33:20.970Z,865.00
2023-03-29T10:34:21.094Z,739.00
2023-03-29T10:35:21.058Z,740.00
2023-03-29T10:36:21.097Z,617.00
2023-03-29T10:37:21.207Z,572.00
2023-03-29T10:38:21.371Z,597.00
2023-03-29T10:39:21.354Z,591.00
2023-03-29T10:40:21.370Z,463.00
2023-03-29T10:41:21.201Z,507.00
2023-03-29T10:42:21.258Z,443.00
2023-03-29T10:43:21.285Z,472.00
2023-03-29T10:44:21.292Z,515.00
2023-03-29T10:45:21.258Z,599.00
2023-03-29T10:46:21.397Z,774.00
2023-03-29T10:47:22.096Z,782.00
2023-03-29T10:48:21.317Z,688.00
2023-03-29T10:49:21.314Z,743.00
2023-03-29T10:50:21.665Z,650.00
2023-03-29T10:51:21.444Z,925.00
2023-03-29T10:52:21.499Z,991.00
2023-03-29T10:53:21.472Z,915.00
2023-03-29T10:54:21.503Z,1532.00
2023-03-29T10:55:21.536Z,1397.00
2023-03-29T10:56:21.592Z,1425.00
2023-03-29T10:57:22.802Z,1949.00
2023-03-29T10:58:21.592Z,1906.00
2023-03-29T10:59:21.613Z,1036.00
2023-03-29T11:00:21.633Z,946.00
2023-03-29T11:01:21.801Z,744.00
2023-03-29T11:02:22.442Z,814.00
2023-03-29T11:03:21.955Z,907.00
2023-03-29T11:04:21.733Z,1313.00
2023-03-29T11:05:21.746Z,819.00
2023-03-29T11:06:21.780Z,664.00
2023-03-29T11:07:21.751Z,733.00
2023-03-29T11:08:21.818Z,657.00
2023-03-29T11:09:21.798Z,720.00
2023-03-29T11:10:21.704Z,618.00
2023-03-29T11:11:21.865Z,803.00
2023-03-29T11:12:21.885Z,1475.00
2023-03-29T11:13:21.889Z,684.00
2023-03-29T11:14:21.832Z,766.00
2023-03-29T11:15:21.995Z,760.00
2023-03-29T11:16:33.634Z,820.00
2023-03-29T11:17:22.087Z,822.00
2023-03-29T11:18:21.999Z,896.00
2023-03-29T11:19:21.938Z,863.00
2023-03-29T11:20:21.966Z,821.00
2023-03-29T11:21:22.111Z,942.00
2023-03-29T11:22:22.652Z,1271.00
2023-03-29T11:23:21.905Z,1331.00
2023-03-29T11:24:23.142Z,774.00
2023-03-29T11:25:22.074Z,840.00
2023-03-29T11:26:22.219Z,670.00
2023-03-29T11:27:22.019Z,1016.00
2023-03-29T11:28:21.984Z,1122.00
2023-03-29T11:29:22.691Z,1421.00
2023-03-29T11:30:23.290Z,1455.00
2023-03-29T11:31:22.277Z,1911.00
2023-03-29T11:32:22.175Z,1952.00
2023-03-29T11:33:21.979Z,1474.00
2023-03-29T11:34:22.004Z,1562.00
2023-03-29T11:35:21.968Z,1914.00
2023-03-29T11:36:22.122Z,1892.00
2023-03-29T11:37:21.911Z,1752.00
2023-03-29T11:38:21.919Z,1594.00
2023-03-29T11:39:21.968Z,1156.00
2023-03-29T11:40:22.715Z,1239.00
2023-03-29T11:41:22.071Z,1080.00
2023-03-29T11:42:21.937Z,1411.00
2023-03-29T11:43:21.841Z,1542.00
2023-03-29T11:44:21.839Z,1340.00
2023-03-29T11:45:21.769Z,1330.00
2023-03-29T11:46:22.167Z,1451.00
2023-03-29T11:47:21.870Z,2195.00
2023-03-29T11:48:21.852Z,1961.00
2023-03-29T11:49:21.809Z,1493.00
2023-03-29T11:50:21.794Z,1835.00
2023-03-29T11:51:21.823Z,1649.00
2023-03-29T11:52:21.793Z,1706.00
2023-03-29T11:53:21.798Z,1662.00
2023-03-29T11:54:22.568Z,2323.00
2023-03-29T11:55:21.916Z,1826.00
2023-03-29T11:56:21.910Z,2161.00
2023-03-29T11:57:21.995Z,1227.00
2023-03-29T11:58:21.921Z,713.00
2023-03-29T11:59:21.893Z,806.00
2023-03-29T12:00:21.967Z,866.00
2023-03-29T12:01:21.958Z,622.00
2023-03-29T12:02:22.058Z,538.00
2023-03-29T12:03:22.198Z,532.00
2023-03-29T12:04:22.030Z,707.00
2023-03-29T12:05:29.660Z,900.00
2023-03-29T12:06:22.000Z,854.00
2023-03-29T12:07:22.009Z,824.00
2023-03-29T12:08:21.980Z,923.00
2023-03-29T12:09:21.977Z,1096.00
2023-03-29T12:10:21.975Z,1218.00
2023-03-29T12:11:21.988Z,1267.00
2023-03-29T12:12:21.979Z,1306.00
2023-03-29T12:13:22.016Z,1161.00
2023-03-29T12:14:21.898Z,1499.00
2023-03-29T12:15:21.948Z,1469.00
2023-03-29T12:16:22.064Z,1345.00
2023-03-29T12:17:22.013Z,1238.00
2023-03-29T12:18:21.951Z,1538.00
2023-03-29T12:19:21.941Z,1426.00